KLAXKFSO

Guest
Details From KLAX - Los Angeles Intl
To KFSO - FRANKLIN CO STATE
Flight Number -
Tags decoded
Created
Modified
Stats Distance 2,288 nm / 4,237 km
Max Altitude 0 ft / 0 m
Waypoints 3
Social Downloads 0
Likes 0
Share VATSIM

Download

Looking for another format? Having issues loading an existing format? Contact us
Advertisement - Login to hide

Notes

Requested: KLAX VTU6 RZS SERFR SERFR2 KFSO Unmatched points: VTU6 SERFR SERFR2

Route

KLAX RZS KFSO

ID Type Via Altitude Latitude Longitude Leg Dist Tot Dist Heading (true) Name
O KLAX APT - 0 ft / 0 m 33.94313˚ -118.40892˚ - 0 nm - Los Angeles Intl
RZS VOR - 0 ft / 0 m 34.50953˚ -119.77100˚ 75 nm 75 nm 297° / 296° SAN MARCUS VORTAC
O KFSO APT - 0 ft / 0 m 44.94029˚ -73.09746˚ 2211 nm 2287 nm 59° / 90° FRANKLIN CO STATE

Altitude Profile

Advertisement - Login to hide

Weather


0- 5 10 15 20 25 30 35+ Temperature / ° C

Clouds and Precipitation
Forecast for 2017-12-15 12:00 UTC. Updated an hour ago

Ground ~20,000 ft ~40,000 ft Winds

KLAX

Details ICAO KLAX (LAX)
Name Los Angeles Intl
Region United States
Timezone America/Los_Angeles (UTC-8.0)
Stats Elevation 126 ft / 38 m (AMSL)
Location 33.943130° -118.408917°
Runways 4
Magnetic Variation 12.006° E

METAR

KLAX 151153Z 12003KT 10SM FEW200 11/03 A3011 RMK AO2 SLP193 T01110028 10189 20106 50002

Decode

TAF

KLAX 151158Z 1512/1618 VRB03KT P6SM SKC FM152000 26008KT P6SM SKC FM160400 VRB03KT P6SM SKC FM160900 16006KT 6SM BR BKN035 FM161700 24007KT P6SM SCT040

Decode

Departure Runways

ID Width Length Bearing (true) Bearing (mag) Surface Threshold Offset Overrun Length
06L 151 ft / 46 m 8,907 ft / 2,715 m 82.98° 70.97° Concrete 0 ft / 0 m 0 ft / 0 m
06R 151 ft / 46 m 10,266 ft / 3,129 m 82.95° 70.94° Concrete 331 ft / 101 m 0 ft / 0 m
07L 151 ft / 46 m 12,069 ft / 3,679 m 82.96° 70.95° Concrete 0 ft / 0 m 0 ft / 0 m
07R 200 ft / 61 m 11,081 ft / 3,377 m 82.96° 70.95° Concrete 0 ft / 0 m 397 ft / 121 m
24L 151 ft / 46 m 10,266 ft / 3,129 m 262.97° 250.96° Concrete 0 ft / 0 m 174 ft / 53 m
24R 151 ft / 46 m 8,907 ft / 2,715 m 263.00° 250.99° Concrete 0 ft / 0 m 305 ft / 93 m
25L 200 ft / 61 m 11,081 ft / 3,377 m 262.98° 250.97° Concrete 0 ft / 0 m 1,053 ft / 321 m
25R 151 ft / 46 m 12,069 ft / 3,679 m 262.98° 250.97° Concrete 958 ft / 292 m 154 ft / 47 m

KFSO

Details ICAO KFSO
Name FRANKLIN CO STATE
Region United States
Timezone America/New_York (UTC-5.0)
Stats Elevation 228 ft / 69 m (AMSL)
Location 44.940290° -73.097460°
Runways 1
Magnetic Variation 14.476° W

METAR

KFSO 151235Z AUTO 12003KT 10SM CLR M21/M23 A3003 RMK AO2 T12091227

Decode

TAF

Not found

Destination Runways

ID Width Length Bearing (true) Bearing (mag) Surface Threshold Offset Overrun Length
01 60 ft / 18 m 3,002 ft / 915 m 349.49° 3.97° Asphalt 0 ft / 0 m 0 ft / 0 m
19 60 ft / 18 m 3,002 ft / 915 m 169.49° 183.97° Asphalt 0 ft / 0 m 0 ft / 0 m

Popular Alternatives